sensor_id;sensor_type;location;lat;lon;timestamp;P1;durP1;ratioP1;P2;durP2;ratioP2
68225;SDS011;55045;49.410;11.030;2024-01-27T00:00:57;11.45;;;10.52;;
68225;SDS011;55045;49.410;11.030;2024-01-27T00:04:02;12.30;;;10.60;;
68225;SDS011;55045;49.410;11.030;2024-01-27T00:07:07;12.10;;;10.82;;
68225;SDS011;55045;49.410;11.030;2024-01-27T00:10:12;13.32;;;10.63;;
68225;SDS011;55045;49.410;11.030;2024-01-27T00:13:15;16.95;;;11.95;;
68225;SDS011;55045;49.410;11.030;2024-01-27T00:16:19;11.85;;;10.75;;
68225;SDS011;55045;49.410;11.030;2024-01-27T00:19:23;11.82;;;10.93;;
68225;SDS011;55045;49.410;11.030;2024-01-27T00:22:28;12.27;;;11.00;;
68225;SDS011;55045;49.410;11.030;2024-01-27T00:25:33;11.27;;;10.18;;
68225;SDS011;55045;49.410;11.030;2024-01-27T00:28:37;12.32;;;11.10;;
68225;SDS011;55045;49.410;11.030;2024-01-27T00:31:40;11.80;;;10.68;;
68225;SDS011;55045;49.410;11.030;2024-01-27T00:34:44;12.10;;;10.90;;
68225;SDS011;55045;49.410;11.030;2024-01-27T00:37:50;13.10;;;10.95;;
68225;SDS011;55045;49.410;11.030;2024-01-27T00:40:55;12.88;;;11.00;;
68225;SDS011;55045;49.410;11.030;2024-01-27T00:43:58;12.45;;;11.27;;
68225;SDS011;55045;49.410;11.030;2024-01-27T00:47:02;12.57;;;11.40;;
68225;SDS011;55045;49.410;11.030;2024-01-27T00:50:07;12.93;;;11.63;;
68225;SDS011;55045;49.410;11.030;2024-01-27T00:53:13;11.60;;;10.65;;
68225;SDS011;55045;49.410;11.030;2024-01-27T00:56:16;11.68;;;10.57;;
68225;SDS011;55045;49.410;11.030;2024-01-27T00:59:20;12.95;;;11.18;;
68225;SDS011;55045;49.410;11.030;2024-01-27T01:02:24;13.73;;;11.98;;
68225;SDS011;55045;49.410;11.030;2024-01-27T01:05:34;14.35;;;10.77;;
68225;SDS011;55045;49.410;11.030;2024-01-27T01:08:39;12.63;;;11.60;;
68225;SDS011;55045;49.410;11.030;2024-01-27T01:11:43;13.43;;;12.52;;
68225;SDS011;55045;49.410;11.030;2024-01-27T01:14:47;12.10;;;10.98;;
68225;SDS011;55045;49.410;11.030;2024-01-27T01:17:51;11.40;;;10.40;;
68225;SDS011;55045;49.410;11.030;2024-01-27T01:20:56;12.48;;;11.10;;
68225;SDS011;55045;49.410;11.030;2024-01-27T01:24:01;16.30;;;11.48;;
68225;SDS011;55045;49.410;11.030;2024-01-27T01:27:05;11.73;;;10.70;;
68225;SDS011;55045;49.410;11.030;2024-01-27T01:30:09;12.45;;;11.25;;
68225;SDS011;55045;49.410;11.030;2024-01-27T01:33:14;11.60;;;10.40;;
68225;SDS011;55045;49.410;11.030;2024-01-27T01:36:18;11.95;;;10.90;;
68225;SDS011;55045;49.410;11.030;2024-01-27T01:39:24;13.32;;;12.00;;
68225;SDS011;55045;49.410;11.030;2024-01-27T01:42:28;13.18;;;11.85;;
68225;SDS011;55045;49.410;11.030;2024-01-27T01:45:33;12.57;;;11.43;;
68225;SDS011;55045;49.410;11.030;2024-01-27T01:48:37;12.45;;;11.32;;
68225;SDS011;55045;49.410;11.030;2024-01-27T01:51:41;13.98;;;12.75;;
68225;SDS011;55045;49.410;11.030;2024-01-27T01:54:46;14.60;;;12.88;;
68225;SDS011;55045;49.410;11.030;2024-01-27T01:57:51;19.77;;;13.35;;
68225;SDS011;55045;49.410;11.030;2024-01-27T02:00:55;14.48;;;12.52;;
68225;SDS011;55045;49.410;11.030;2024-01-27T02:04:06;13.90;;;12.90;;
68225;SDS011;55045;49.410;11.030;2024-01-27T02:07:30;14.60;;;13.40;;
68225;SDS011;55045;49.410;11.030;2024-01-27T02:10:35;14.63;;;13.30;;
68225;SDS011;55045;49.410;11.030;2024-01-27T02:13:41;14.63;;;12.43;;
68225;SDS011;55045;49.410;11.030;2024-01-27T02:16:45;13.85;;;12.48;;
68225;SDS011;55045;49.410;11.030;2024-01-27T02:19:49;15.05;;;13.55;;
68225;SDS011;55045;49.410;11.030;2024-01-27T02:22:55;17.58;;;13.18;;
68225;SDS011;55045;49.410;11.030;2024-01-27T02:26:00;15.85;;;14.25;;
68225;SDS011;55045;49.410;11.030;2024-01-27T02:29:03;17.80;;;13.45;;
68225;SDS011;55045;49.410;11.030;2024-01-27T02:32:08;21.88;;;12.50;;
68225;SDS011;55045;49.410;11.030;2024-01-27T02:35:12;14.43;;;13.00;;
68225;SDS011;55045;49.410;11.030;2024-01-27T02:38:16;14.70;;;13.40;;
68225;SDS011;55045;49.410;11.030;2024-01-27T02:41:21;15.07;;;13.30;;
68225;SDS011;55045;49.410;11.030;2024-01-27T02:44:25;13.68;;;12.38;;
68225;SDS011;55045;49.410;11.030;2024-01-27T02:47:29;13.85;;;12.50;;
68225;SDS011;55045;49.410;11.030;2024-01-27T02:50:34;14.05;;;12.88;;
68225;SDS011;55045;49.410;11.030;2024-01-27T02:53:40;15.70;;;14.02;;
68225;SDS011;55045;49.410;11.030;2024-01-27T02:56:45;15.07;;;13.52;;
68225;SDS011;55045;49.410;11.030;2024-01-27T02:59:49;13.90;;;12.73;;
68225;SDS011;55045;49.410;11.030;2024-01-27T03:02:52;15.73;;;14.02;;
68225;SDS011;55045;49.410;11.030;2024-01-27T03:05:56;14.73;;;12.93;;
68225;SDS011;55045;49.410;11.030;2024-01-27T03:09:00;15.60;;;12.80;;
68225;SDS011;55045;49.410;11.030;2024-01-27T03:12:05;15.02;;;13.63;;
68225;SDS011;55045;49.410;11.030;2024-01-27T03:15:09;14.35;;;12.85;;
68225;SDS011;55045;49.410;11.030;2024-01-27T03:18:13;15.13;;;13.20;;
68225;SDS011;55045;49.410;11.030;2024-01-27T03:21:17;14.55;;;13.32;;
68225;SDS011;55045;49.410;11.030;2024-01-27T03:24:21;15.07;;;13.48;;
68225;SDS011;55045;49.410;11.030;2024-01-27T03:27:26;17.80;;;13.52;;
68225;SDS011;55045;49.410;11.030;2024-01-27T03:30:30;15.27;;;13.98;;
68225;SDS011;55045;49.410;11.030;2024-01-27T03:33:33;14.98;;;13.40;;
68225;SDS011;55045;49.410;11.030;2024-01-27T03:36:38;15.68;;;12.98;;
68225;SDS011;55045;49.410;11.030;2024-01-27T03:39:42;14.23;;;12.90;;
68225;SDS011;55045;49.410;11.030;2024-01-27T03:42:50;13.95;;;12.60;;
68225;SDS011;55045;49.410;11.030;2024-01-27T03:45:54;14.48;;;13.00;;
68225;SDS011;55045;49.410;11.030;2024-01-27T03:48:57;15.38;;;14.00;;
68225;SDS011;55045;49.410;11.030;2024-01-27T03:52:02;15.85;;;14.50;;
68225;SDS011;55045;49.410;11.030;2024-01-27T03:55:06;17.10;;;14.63;;
68225;SDS011;55045;49.410;11.030;2024-01-27T03:58:11;18.95;;;14.20;;
68225;SDS011;55045;49.410;11.030;2024-01-27T04:01:16;15.43;;;13.98;;
68225;SDS011;55045;49.410;11.030;2024-01-27T04:04:19;16.27;;;14.68;;
68225;SDS011;55045;49.410;11.030;2024-01-27T04:07:23;16.83;;;15.10;;
68225;SDS011;55045;49.410;11.030;2024-01-27T04:10:27;18.45;;;16.73;;
68225;SDS011;55045;49.410;11.030;2024-01-27T04:13:33;17.20;;;15.38;;
68225;SDS011;55045;49.410;11.030;2024-01-27T04:16:37;16.42;;;14.77;;
68225;SDS011;55045;49.410;11.030;2024-01-27T04:19:42;15.95;;;14.30;;
68225;SDS011;55045;49.410;11.030;2024-01-27T04:22:47;16.48;;;14.60;;
68225;SDS011;55045;49.410;11.030;2024-01-27T04:25:50;19.45;;;15.75;;
68225;SDS011;55045;49.410;11.030;2024-01-27T04:28:56;17.23;;;15.57;;
68225;SDS011;55045;49.410;11.030;2024-01-27T04:34:52;17.35;;;15.57;;
68225;SDS011;55045;49.410;11.030;2024-01-27T04:37:56;18.08;;;16.50;;
68225;SDS011;55045;49.410;11.030;2024-01-27T04:41:01;19.75;;;17.15;;
68225;SDS011;55045;49.410;11.030;2024-01-27T04:44:06;16.40;;;14.77;;
68225;SDS011;55045;49.410;11.030;2024-01-27T04:47:09;17.33;;;15.60;;
68225;SDS011;55045;49.410;11.030;2024-01-27T04:50:14;23.35;;;16.15;;
68225;SDS011;55045;49.410;11.030;2024-01-27T04:53:18;18.00;;;16.30;;
68225;SDS011;55045;49.410;11.030;2024-01-27T04:56:22;18.77;;;15.48;;
68225;SDS011;55045;49.410;11.030;2024-01-27T04:59:25;16.05;;;14.32;;
68225;SDS011;55045;49.410;11.030;2024-01-27T05:02:29;15.65;;;14.20;;
68225;SDS011;55045;49.410;11.030;2024-01-27T05:05:35;17.63;;;15.82;;
68225;SDS011;55045;49.410;11.030;2024-01-27T05:08:38;21.95;;;17.20;;
68225;SDS011;55045;49.410;11.030;2024-01-27T05:11:42;18.55;;;16.60;;
68225;SDS011;55045;49.410;11.030;2024-01-27T05:14:48;21.00;;;17.10;;
68225;SDS011;55045;49.410;11.030;2024-01-27T05:17:52;25.00;;;17.55;;
68225;SDS011;55045;49.410;11.030;2024-01-27T05:20:57;19.50;;;17.40;;
68225;SDS011;55045;49.410;11.030;2024-01-27T05:24:01;23.42;;;16.65;;
68225;SDS011;55045;49.410;11.030;2024-01-27T05:27:05;21.38;;;17.73;;
68225;SDS011;55045;49.410;11.030;2024-01-27T05:30:09;20.05;;;17.88;;
68225;SDS011;55045;49.410;11.030;2024-01-27T05:33:14;22.25;;;17.88;;
68225;SDS011;55045;49.410;11.030;2024-01-27T05:36:21;22.80;;;18.27;;
68225;SDS011;55045;49.410;11.030;2024-01-27T05:39:25;21.90;;;18.05;;
68225;SDS011;55045;49.410;11.030;2024-01-27T05:42:29;19.08;;;17.08;;
68225;SDS011;55045;49.410;11.030;2024-01-27T05:45:33;21.13;;;18.00;;
68225;SDS011;55045;49.410;11.030;2024-01-27T05:48:38;19.92;;;15.13;;
68225;SDS011;55045;49.410;11.030;2024-01-27T05:51:43;22.38;;;16.98;;
68225;SDS011;55045;49.410;11.030;2024-01-27T05:54:46;17.30;;;14.75;;
68225;SDS011;55045;49.410;11.030;2024-01-27T05:57:58;19.65;;;16.75;;
68225;SDS011;55045;49.410;11.030;2024-01-27T06:01:01;18.70;;;15.98;;
68225;SDS011;55045;49.410;11.030;2024-01-27T06:04:05;21.30;;;14.32;;
68225;SDS011;55045;49.410;11.030;2024-01-27T06:07:11;18.75;;;16.55;;
68225;SDS011;55045;49.410;11.030;2024-01-27T06:10:15;17.05;;;15.32;;
68225;SDS011;55045;49.410;11.030;2024-01-27T06:13:20;18.85;;;14.85;;
68225;SDS011;55045;49.410;11.030;2024-01-27T06:16:24;18.48;;;15.20;;
68225;SDS011;55045;49.410;11.030;2024-01-27T06:19:28;23.38;;;15.77;;
68225;SDS011;55045;49.410;11.030;2024-01-27T06:22:33;18.40;;;15.10;;
68225;SDS011;55045;49.410;11.030;2024-01-27T06:25:37;20.88;;;15.70;;
68225;SDS011;55045;49.410;11.030;2024-01-27T06:28:41;35.35;;;16.05;;
68225;SDS011;55045;49.410;11.030;2024-01-27T06:31:46;22.02;;;15.63;;
68225;SDS011;55045;49.410;11.030;2024-01-27T06:34:50;23.48;;;15.05;;
68225;SDS011;55045;49.410;11.030;2024-01-27T06:37:55;20.23;;;16.45;;
68225;SDS011;55045;49.410;11.030;2024-01-27T06:40:59;19.48;;;16.52;;
68225;SDS011;55045;49.410;11.030;2024-01-27T06:44:03;23.05;;;16.08;;
68225;SDS011;55045;49.410;11.030;2024-01-27T06:47:07;22.23;;;16.83;;
68225;SDS011;55045;49.410;11.030;2024-01-27T06:50:11;17.90;;;15.15;;
68225;SDS011;55045;49.410;11.030;2024-01-27T07:24:03;22.52;;;16.48;;
68225;SDS011;55045;49.410;11.030;2024-01-27T07:37:11;23.00;;;18.33;;
68225;SDS011;55045;49.410;11.030;2024-01-27T07:43:20;22.38;;;16.95;;
68225;SDS011;55045;49.410;11.030;2024-01-27T07:46:46;21.67;;;16.25;;
68225;SDS011;55045;49.410;11.030;2024-01-27T07:49:49;17.92;;;14.60;;
68225;SDS011;55045;49.410;11.030;2024-01-27T07:52:53;23.55;;;18.65;;
68225;SDS011;55045;49.410;11.030;2024-01-27T07:55:57;21.65;;;17.02;;
68225;SDS011;55045;49.410;11.030;2024-01-27T07:59:02;15.25;;;13.43;;
68225;SDS011;55045;49.410;11.030;2024-01-27T08:02:06;16.40;;;12.85;;
68225;SDS011;55045;49.410;11.030;2024-01-27T08:05:09;18.40;;;15.13;;
68225;SDS011;55045;49.410;11.030;2024-01-27T08:08:13;18.70;;;14.27;;
68225;SDS011;55045;49.410;11.030;2024-01-27T08:11:17;19.88;;;15.73;;
68225;SDS011;55045;49.410;11.030;2024-01-27T08:14:23;18.98;;;14.52;;
68225;SDS011;55045;49.410;11.030;2024-01-27T08:17:26;24.45;;;18.60;;
68225;SDS011;55045;49.410;11.030;2024-01-27T08:20:34;33.75;;;21.50;;
68225;SDS011;55045;49.410;11.030;2024-01-27T08:23:38;26.52;;;17.77;;
68225;SDS011;55045;49.410;11.030;2024-01-27T08:26:42;26.33;;;15.60;;
68225;SDS011;55045;49.410;11.030;2024-01-27T08:29:50;21.13;;;16.65;;
68225;SDS011;55045;49.410;11.030;2024-01-27T08:36:02;19.17;;;14.15;;
68225;SDS011;55045;49.410;11.030;2024-01-27T08:39:06;16.98;;;15.20;;
68225;SDS011;55045;49.410;11.030;2024-01-27T08:42:13;18.25;;;14.13;;
68225;SDS011;55045;49.410;11.030;2024-01-27T08:45:18;15.90;;;14.25;;
68225;SDS011;55045;49.410;11.030;2024-01-27T08:48:22;20.17;;;16.13;;
68225;SDS011;55045;49.410;11.030;2024-01-27T08:51:26;16.27;;;13.82;;
68225;SDS011;55045;49.410;11.030;2024-01-27T08:54:30;14.98;;;13.25;;
68225;SDS011;55045;49.410;11.030;2024-01-27T08:57:34;38.15;;;21.75;;
68225;SDS011;55045;49.410;11.030;2024-01-27T09:01:10;65.40;;;37.03;;
68225;SDS011;55045;49.410;11.030;2024-01-27T09:04:41;18.38;;;13.88;;
68225;SDS011;55045;49.410;11.030;2024-01-27T09:08:25;12.25;;;11.00;;
68225;SDS011;55045;49.410;11.030;2024-01-27T09:11:56;13.57;;;10.77;;
68225;SDS011;55045;49.410;11.030;2024-01-27T09:15:27;16.88;;;12.10;;
68225;SDS011;55045;49.410;11.030;2024-01-27T09:18:49;21.30;;;12.30;;
68225;SDS011;55045;49.410;11.030;2024-01-27T09:22:42;17.73;;;11.52;;
68225;SDS011;55045;49.410;11.030;2024-01-27T09:26:23;12.55;;;9.10;;
68225;SDS011;55045;49.410;11.030;2024-01-27T09:30:04;13.73;;;8.95;;
68225;SDS011;55045;49.410;11.030;2024-01-27T09:33:10;10.88;;;5.47;;
68225;SDS011;55045;49.410;11.030;2024-01-27T09:36:18;13.50;;;5.95;;
68225;SDS011;55045;49.410;11.030;2024-01-27T09:39:56;11.73;;;6.75;;
68225;SDS011;55045;49.410;11.030;2024-01-27T09:43:41;11.60;;;6.78;;
68225;SDS011;55045;49.410;11.030;2024-01-27T09:47:20;13.00;;;6.82;;
68225;SDS011;55045;49.410;11.030;2024-01-27T09:51:09;10.68;;;5.50;;
68225;SDS011;55045;49.410;11.030;2024-01-27T09:54:52;14.35;;;5.45;;
68225;SDS011;55045;49.410;11.030;2024-01-27T09:58:24;8.98;;;4.30;;
68225;SDS011;55045;49.410;11.030;2024-01-27T10:02:12;11.13;;;5.82;;
68225;SDS011;55045;49.410;11.030;2024-01-27T10:05:30;9.15;;;5.30;;
68225;SDS011;55045;49.410;11.030;2024-01-27T10:09:18;10.68;;;5.53;;
68225;SDS011;55045;49.410;11.030;2024-01-27T10:12:23;13.98;;;7.80;;
68225;SDS011;55045;49.410;11.030;2024-01-27T10:15:29;9.45;;;5.07;;
68225;SDS011;55045;49.410;11.030;2024-01-27T10:24:13;16.65;;;8.00;;
68225;SDS011;55045;49.410;11.030;2024-01-27T10:35:00;23.15;;;11.77;;
68225;SDS011;55045;49.410;11.030;2024-01-27T10:38:05;16.08;;;5.43;;
68225;SDS011;55045;49.410;11.030;2024-01-27T10:41:09;12.02;;;5.72;;
68225;SDS011;55045;49.410;11.030;2024-01-27T10:44:19;14.43;;;7.25;;
68225;SDS011;55045;49.410;11.030;2024-01-27T10:47:39;18.70;;;5.43;;
68225;SDS011;55045;49.410;11.030;2024-01-27T10:50:52;12.20;;;7.00;;
68225;SDS011;55045;49.410;11.030;2024-01-27T10:54:22;13.52;;;6.22;;
68225;SDS011;55045;49.410;11.030;2024-01-27T10:57:35;11.77;;;5.68;;
68225;SDS011;55045;49.410;11.030;2024-01-27T11:00:52;12.45;;;4.55;;
68225;SDS011;55045;49.410;11.030;2024-01-27T11:04:15;13.75;;;4.78;;
68225;SDS011;55045;49.410;11.030;2024-01-27T11:08:05;9.75;;;4.15;;
68225;SDS011;55045;49.410;11.030;2024-01-27T11:11:30;15.90;;;4.93;;
68225;SDS011;55045;49.410;11.030;2024-01-27T11:15:16;14.15;;;4.88;;
68225;SDS011;55045;49.410;11.030;2024-01-27T11:18:49;13.18;;;6.53;;
68225;SDS011;55045;49.410;11.030;2024-01-27T11:22:17;12.45;;;4.57;;
68225;SDS011;55045;49.410;11.030;2024-01-27T11:25:44;14.10;;;4.43;;
68225;SDS011;55045;49.410;11.030;2024-01-27T11:29:15;16.88;;;5.10;;
68225;SDS011;55045;49.410;11.030;2024-01-27T11:36:38;11.68;;;4.30;;
68225;SDS011;55045;49.410;11.030;2024-01-27T11:40:11;12.80;;;3.55;;
68225;SDS011;55045;49.410;11.030;2024-01-27T11:43:44;18.02;;;4.03;;
68225;SDS011;55045;49.410;11.030;2024-01-27T11:47:16;12.27;;;3.70;;
68225;SDS011;55045;49.410;11.030;2024-01-27T11:51:10;11.25;;;3.47;;
68225;SDS011;55045;49.410;11.030;2024-01-27T11:54:40;10.55;;;3.72;;
68225;SDS011;55045;49.410;11.030;2024-01-27T11:58:26;7.32;;;2.53;;
68225;SDS011;55045;49.410;11.030;2024-01-27T12:01:55;15.57;;;3.33;;
68225;SDS011;55045;49.410;11.030;2024-01-27T12:05:35;9.73;;;3.33;;
68225;SDS011;55045;49.410;11.030;2024-01-27T12:08:49;11.20;;;3.50;;
68225;SDS011;55045;49.410;11.030;2024-01-27T12:12:33;8.43;;;2.95;;
68225;SDS011;55045;49.410;11.030;2024-01-27T12:15:48;9.30;;;3.00;;
68225;SDS011;55045;49.410;11.030;2024-01-27T12:19:13;9.75;;;2.63;;
68225;SDS011;55045;49.410;11.030;2024-01-27T12:23:07;9.63;;;3.00;;
68225;SDS011;55045;49.410;11.030;2024-01-27T12:26:48;10.48;;;3.13;;
68225;SDS011;55045;49.410;11.030;2024-01-27T12:30:11;7.03;;;2.67;;
68225;SDS011;55045;49.410;11.030;2024-01-27T12:33:27;10.30;;;2.78;;
68225;SDS011;55045;49.410;11.030;2024-01-27T12:36:48;9.68;;;3.53;;
68225;SDS011;55045;49.410;11.030;2024-01-27T12:39:54;8.55;;;3.00;;
68225;SDS011;55045;49.410;11.030;2024-01-27T12:43:01;10.50;;;3.00;;
68225;SDS011;55045;49.410;11.030;2024-01-27T12:46:05;7.72;;;2.53;;
68225;SDS011;55045;49.410;11.030;2024-01-27T12:49:12;17.13;;;4.07;;
68225;SDS011;55045;49.410;11.030;2024-01-27T12:52:17;9.73;;;3.90;;
68225;SDS011;55045;49.410;11.030;2024-01-27T12:55:21;16.75;;;6.40;;
68225;SDS011;55045;49.410;11.030;2024-01-27T12:58:28;9.38;;;2.95;;
68225;SDS011;55045;49.410;11.030;2024-01-27T13:01:32;7.60;;;2.60;;
68225;SDS011;55045;49.410;11.030;2024-01-27T13:04:39;12.80;;;2.80;;
68225;SDS011;55045;49.410;11.030;2024-01-27T13:07:45;8.35;;;2.83;;
68225;SDS011;55045;49.410;11.030;2024-01-27T13:10:50;8.95;;;2.83;;
68225;SDS011;55045;49.410;11.030;2024-01-27T13:13:55;5.88;;;2.35;;
68225;SDS011;55045;49.410;11.030;2024-01-27T13:17:27;9.13;;;2.72;;
68225;SDS011;55045;49.410;11.030;2024-01-27T13:21:02;9.63;;;3.28;;
68225;SDS011;55045;49.410;11.030;2024-01-27T13:24:23;6.75;;;2.50;;
68225;SDS011;55045;49.410;11.030;2024-01-27T13:27:35;7.88;;;2.60;;
68225;SDS011;55045;49.410;11.030;2024-01-27T13:30:56;10.73;;;2.85;;
68225;SDS011;55045;49.410;11.030;2024-01-27T13:34:29;8.65;;;2.42;;
68225;SDS011;55045;49.410;11.030;2024-01-27T13:38:05;9.05;;;2.47;;
68225;SDS011;55045;49.410;11.030;2024-01-27T13:41:43;10.77;;;3.10;;
68225;SDS011;55045;49.410;11.030;2024-01-27T13:45:19;9.95;;;2.83;;
68225;SDS011;55045;49.410;11.030;2024-01-27T13:49:13;11.02;;;3.50;;
68225;SDS011;55045;49.410;11.030;2024-01-27T13:52:17;13.18;;;3.25;;
68225;SDS011;55045;49.410;11.030;2024-01-27T13:55:21;10.85;;;3.30;;
68225;SDS011;55045;49.410;11.030;2024-01-27T13:58:28;12.75;;;3.05;;
68225;SDS011;55045;49.410;11.030;2024-01-27T14:01:32;6.60;;;2.72;;
68225;SDS011;55045;49.410;11.030;2024-01-27T14:04:36;8.23;;;2.40;;
68225;SDS011;55045;49.410;11.030;2024-01-27T14:07:40;14.05;;;2.60;;
68225;SDS011;55045;49.410;11.030;2024-01-27T14:10:47;7.82;;;2.60;;
68225;SDS011;55045;49.410;11.030;2024-01-27T14:13:55;7.45;;;2.35;;
68225;SDS011;55045;49.410;11.030;2024-01-27T14:16:58;9.35;;;4.68;;
68225;SDS011;55045;49.410;11.030;2024-01-27T14:20:03;9.10;;;2.70;;
68225;SDS011;55045;49.410;11.030;2024-01-27T14:23:08;9.20;;;2.63;;
68225;SDS011;55045;49.410;11.030;2024-01-27T14:30:28;7.18;;;2.83;;
68225;SDS011;55045;49.410;11.030;2024-01-27T14:33:50;9.95;;;2.90;;
68225;SDS011;55045;49.410;11.030;2024-01-27T14:37:10;8.48;;;2.45;;
68225;SDS011;55045;49.410;11.030;2024-01-27T14:40:45;7.32;;;2.63;;
68225;SDS011;55045;49.410;11.030;2024-01-27T14:44:26;8.75;;;2.40;;
68225;SDS011;55045;49.410;11.030;2024-01-27T14:47:44;11.23;;;2.78;;
68225;SDS011;55045;49.410;11.030;2024-01-27T14:51:28;8.80;;;3.35;;
68225;SDS011;55045;49.410;11.030;2024-01-27T14:54:55;7.97;;;2.75;;
68225;SDS011;55045;49.410;11.030;2024-01-27T14:58:04;11.75;;;2.78;;
68225;SDS011;55045;49.410;11.030;2024-01-27T15:01:13;12.43;;;3.15;;
68225;SDS011;55045;49.410;11.030;2024-01-27T15:04:20;11.25;;;2.65;;
68225;SDS011;55045;49.410;11.030;2024-01-27T15:07:28;8.80;;;2.83;;
68225;SDS011;55045;49.410;11.030;2024-01-27T15:10:33;5.97;;;2.72;;
68225;SDS011;55045;49.410;11.030;2024-01-27T15:13:37;7.43;;;2.80;;
68225;SDS011;55045;49.410;11.030;2024-01-27T15:16:41;10.50;;;2.65;;
68225;SDS011;55045;49.410;11.030;2024-01-27T15:19:46;9.75;;;2.83;;
68225;SDS011;55045;49.410;11.030;2024-01-27T15:22:50;9.48;;;2.72;;
68225;SDS011;55045;49.410;11.030;2024-01-27T15:25:54;7.90;;;3.78;;
68225;SDS011;55045;49.410;11.030;2024-01-27T15:28:58;11.27;;;3.47;;
68225;SDS011;55045;49.410;11.030;2024-01-27T15:32:01;9.65;;;4.93;;
68225;SDS011;55045;49.410;11.030;2024-01-27T15:35:07;20.00;;;9.65;;
68225;SDS011;55045;49.410;11.030;2024-01-27T15:38:11;23.20;;;12.90;;
68225;SDS011;55045;49.410;11.030;2024-01-27T15:41:15;14.70;;;9.50;;
68225;SDS011;55045;49.410;11.030;2024-01-27T15:44:20;15.75;;;11.75;;
68225;SDS011;55045;49.410;11.030;2024-01-27T15:47:25;18.60;;;10.88;;
68225;SDS011;55045;49.410;11.030;2024-01-27T15:50:38;16.48;;;9.10;;
68225;SDS011;55045;49.410;11.030;2024-01-27T15:53:42;16.52;;;9.05;;
68225;SDS011;55045;49.410;11.030;2024-01-27T15:56:46;13.55;;;9.82;;
68225;SDS011;55045;49.410;11.030;2024-01-27T15:59:50;15.25;;;9.60;;
68225;SDS011;55045;49.410;11.030;2024-01-27T16:02:54;12.70;;;7.75;;
68225;SDS011;55045;49.410;11.030;2024-01-27T16:06:00;14.25;;;9.98;;
68225;SDS011;55045;49.410;11.030;2024-01-27T16:09:04;10.52;;;9.48;;
68225;SDS011;55045;49.410;11.030;2024-01-27T16:12:11;14.82;;;8.68;;
68225;SDS011;55045;49.410;11.030;2024-01-27T16:15:15;14.52;;;10.18;;
68225;SDS011;55045;49.410;11.030;2024-01-27T16:18:18;13.82;;;11.05;;
68225;SDS011;55045;49.410;11.030;2024-01-27T16:21:24;21.42;;;11.55;;
68225;SDS011;55045;49.410;11.030;2024-01-27T16:24:28;15.70;;;10.95;;
68225;SDS011;55045;49.410;11.030;2024-01-27T16:27:31;16.35;;;12.63;;
68225;SDS011;55045;49.410;11.030;2024-01-27T16:30:37;17.00;;;13.10;;
68225;SDS011;55045;49.410;11.030;2024-01-27T16:34:51;18.55;;;11.05;;
68225;SDS011;55045;49.410;11.030;2024-01-27T16:37:55;17.95;;;12.15;;
68225;SDS011;55045;49.410;11.030;2024-01-27T16:40:59;20.25;;;12.32;;
68225;SDS011;55045;49.410;11.030;2024-01-27T16:44:03;19.63;;;12.35;;
68225;SDS011;55045;49.410;11.030;2024-01-27T16:47:07;19.13;;;13.00;;
68225;SDS011;55045;49.410;11.030;2024-01-27T16:50:13;19.52;;;12.70;;
68225;SDS011;55045;49.410;11.030;2024-01-27T16:53:16;22.52;;;13.57;;
68225;SDS011;55045;49.410;11.030;2024-01-27T16:56:20;18.58;;;15.38;;
68225;SDS011;55045;49.410;11.030;2024-01-27T16:59:26;18.25;;;14.65;;
68225;SDS011;55045;49.410;11.030;2024-01-27T17:02:31;19.58;;;14.73;;
68225;SDS011;55045;49.410;11.030;2024-01-27T17:05:40;22.27;;;14.55;;
68225;SDS011;55045;49.410;11.030;2024-01-27T17:08:44;20.42;;;15.73;;
68225;SDS011;55045;49.410;11.030;2024-01-27T17:11:48;26.90;;;18.67;;
68225;SDS011;55045;49.410;11.030;2024-01-27T17:14:51;31.63;;;20.73;;
68225;SDS011;55045;49.410;11.030;2024-01-27T17:17:57;30.38;;;21.33;;
68225;SDS011;55045;49.410;11.030;2024-01-27T17:21:02;37.03;;;24.67;;
68225;SDS011;55045;49.410;11.030;2024-01-27T17:24:06;37.45;;;25.38;;
68225;SDS011;55045;49.410;11.030;2024-01-27T17:27:10;34.40;;;25.50;;
68225;SDS011;55045;49.410;11.030;2024-01-27T17:30:14;32.47;;;26.48;;
68225;SDS011;55045;49.410;11.030;2024-01-27T17:33:17;40.08;;;25.90;;
68225;SDS011;55045;49.410;11.030;2024-01-27T17:36:23;34.45;;;25.25;;
68225;SDS011;55045;49.410;11.030;2024-01-27T17:39:27;41.13;;;26.42;;
68225;SDS011;55045;49.410;11.030;2024-01-27T17:42:31;34.45;;;24.92;;
68225;SDS011;55045;49.410;11.030;2024-01-27T17:45:35;36.35;;;25.75;;
68225;SDS011;55045;49.410;11.030;2024-01-27T17:48:39;32.70;;;21.42;;
68225;SDS011;55045;49.410;11.030;2024-01-27T17:51:45;27.67;;;21.42;;
68225;SDS011;55045;49.410;11.030;2024-01-27T17:54:51;36.22;;;24.23;;
68225;SDS011;55045;49.410;11.030;2024-01-27T17:57:55;27.38;;;20.15;;
68225;SDS011;55045;49.410;11.030;2024-01-27T18:00:59;35.35;;;23.60;;
68225;SDS011;55045;49.410;11.030;2024-01-27T18:04:03;28.70;;;22.73;;
68225;SDS011;55045;49.410;11.030;2024-01-27T18:07:09;31.67;;;23.80;;
68225;SDS011;55045;49.410;11.030;2024-01-27T18:10:13;36.00;;;23.88;;
68225;SDS011;55045;49.410;11.030;2024-01-27T18:13:17;31.38;;;22.38;;
68225;SDS011;55045;49.410;11.030;2024-01-27T18:16:20;30.00;;;21.80;;
68225;SDS011;55045;49.410;11.030;2024-01-27T18:19:26;30.23;;;22.50;;
68225;SDS011;55045;49.410;11.030;2024-01-27T18:22:31;39.17;;;27.67;;
68225;SDS011;55045;49.410;11.030;2024-01-27T18:25:35;38.10;;;28.27;;
68225;SDS011;55045;49.410;11.030;2024-01-27T18:28:41;42.38;;;30.27;;
68225;SDS011;55045;49.410;11.030;2024-01-27T18:31:45;45.15;;;28.98;;
68225;SDS011;55045;49.410;11.030;2024-01-27T18:34:49;47.50;;;34.65;;
68225;SDS011;55045;49.410;11.030;2024-01-27T18:37:54;45.42;;;33.95;;
68225;SDS011;55045;49.410;11.030;2024-01-27T18:40:58;45.83;;;38.17;;
68225;SDS011;55045;49.410;11.030;2024-01-27T18:44:03;43.45;;;32.67;;
68225;SDS011;55045;49.410;11.030;2024-01-27T18:47:07;50.65;;;37.55;;
68225;SDS011;55045;49.410;11.030;2024-01-27T18:50:12;56.92;;;39.65;;
68225;SDS011;55045;49.410;11.030;2024-01-27T18:53:17;68.05;;;44.72;;
68225;SDS011;55045;49.410;11.030;2024-01-27T18:56:21;61.67;;;41.05;;
68225;SDS011;55045;49.410;11.030;2024-01-27T18:59:25;52.13;;;34.88;;
68225;SDS011;55045;49.410;11.030;2024-01-27T19:02:29;49.78;;;33.90;;
68225;SDS011;55045;49.410;11.030;2024-01-27T19:05:34;46.08;;;32.58;;
68225;SDS011;55045;49.410;11.030;2024-01-27T19:08:39;48.90;;;33.85;;
68225;SDS011;55045;49.410;11.030;2024-01-27T19:11:44;54.08;;;36.17;;
68225;SDS011;55045;49.410;11.030;2024-01-27T19:14:47;56.17;;;36.70;;
68225;SDS011;55045;49.410;11.030;2024-01-27T19:17:52;57.08;;;36.83;;
68225;SDS011;55045;49.410;11.030;2024-01-27T19:20:56;61.70;;;39.38;;
68225;SDS011;55045;49.410;11.030;2024-01-27T19:24:00;52.90;;;36.00;;
68225;SDS011;55045;49.410;11.030;2024-01-27T19:27:04;47.92;;;31.15;;
68225;SDS011;55045;49.410;11.030;2024-01-27T19:30:08;48.33;;;31.75;;
68225;SDS011;55045;49.410;11.030;2024-01-27T19:33:13;45.08;;;30.20;;